Milton, West Virginia
Current Conditions -  °F | °C
As of 2:51 AM on Sunday 26 Oct 2014 (Local Time) from KHTS Reporting Station
Clear Clear  
Wind Chill: 58°   Ceiling: Unl
Heat Index: 58°   Visibility: 8mi
Dew Point: 55°   Wind: 7mph
Humidity: 90%   Direction: 220°SW
Pressure: 29.9"   Gusts: NA
Location:  38.43°N, 82.13°W
Report Text: KHTS 260651Z 22006KT 8SM CLR 14/13 A2990 RMK AO2 SLP122 T01440128
Loading
Personal Weather Stations






























Interactive Weather Map
Tropical Storm Tracking
New forecast layout! Learn more

10-Day Weather Forecast

Advertisements
Track Severe Weather on mobile